Time;durP1;ratioP1;P1;durP2;ratioP2;P2;SDS_P1;SDS_P2;PMS_P1;PMS_P2;Temp;Humidity;BMP_temperature;BMP_pressure;BME280_temperature;BME280_humidity;BME280_pressure;Samples;Min_cycle;Max_cycle;Signal;HPM_P1;HPM_P2
2022/07/13 06:12:41;;;;;;;7.28;2.35;;;;;;;21.81;82.15;101028.50;8353102;28;20403;-57
2022/07/13 06:16:41;;;;;;;7.25;2.53;;;;;;;21.35;86.14;101018.97;8352587;28;20041;-57
2022/07/13 06:20:42;;;;;;;14.43;3.20;;;;;;;21.18;90.63;101001.03;8352297;28;20140;-57
2022/07/13 06:24:43;;;;;;;5.40;2.40;;;;;;;21.20;90.47;101007.19;8350195;28;20041;-57
2022/07/13 06:28:44;;;;;;;10.18;2.40;;;;;;;21.50;89.24;101005.94;8349594;28;20391;-57
2022/07/13 06:32:44;;;;;;;3.47;2.25;;;;;;;21.83;87.96;101007.09;8351023;28;20087;-55
2022/07/13 06:36:45;;;;;;;4.77;2.10;;;;;;;22.14;86.13;101004.75;8351722;28;20030;-57
2022/07/13 06:40:47;;;;;;;3.05;2.15;;;;;;;22.40;84.64;101010.41;8351290;28;20368;-57
2022/07/13 06:44:47;;;;;;;6.43;1.88;;;;;;;22.67;83.70;101020.50;8350694;28;20041;-57
2022/07/13 06:48:48;;;;;;;3.63;2.37;;;;;;;22.99;80.96;101017.00;8351290;28;20079;-57
2022/07/13 06:52:49;;;;;;;6.20;2.10;;;;;;;23.28;79.21;101006.66;8350978;28;20731;-57
2022/07/13 06:56:49;;;;;;;7.25;1.90;;;;;;;23.38;79.10;101009.84;8351170;28;20160;-57
2022/07/13 07:00:50;;;;;;;6.72;2.47;;;;;;;23.61;77.62;101015.81;8350163;28;20033;-57
2022/07/13 07:04:51;;;;;;;7.60;2.50;;;;;;;23.80;77.39;101020.47;8350242;28;20041;-57
2022/07/13 07:08:51;;;;;;;6.20;2.25;;;;;;;23.99;75.90;101011.31;8349822;28;20367;-57
2022/07/13 07:12:52;;;;;;;9.93;2.63;;;;;;;24.46;74.99;101006.28;8332342;28;20041;-57
2022/07/13 07:16:52;;;;;;;6.03;2.20;;;;;;;24.79;72.28;101008.94;8322272;28;20033;-57
2022/07/13 07:20:53;;;;;;;3.70;1.70;;;;;;;25.11;68.82;101004.28;8329060;28;20637;-56
2022/07/13 07:24:53;;;;;;;3.67;2.00;;;;;;;25.22;69.16;101012.69;8326798;28;20291;-57
2022/07/13 07:28:53;;;;;;;3.63;1.90;;;;;;;25.20;68.22;101017.63;8328334;28;20033;-57
2022/07/13 07:32:54;;;;;;;7.38;2.10;;;;;;;24.79;71.49;101006.16;8327325;28;20040;-57
2022/07/13 07:36:55;;;;;;;2.90;1.98;;;;;;;24.47;74.34;101007.16;8328418;28;20041;-57
2022/07/13 07:40:57;;;;;;;3.58;1.90;;;;;;;24.68;75.38;101009.63;8328550;28;20104;-57
2022/07/13 07:44:58;;;;;;;3.83;1.73;;;;;;;25.07;74.31;101014.97;8328559;28;20561;-57
2022/07/13 07:48:58;;;;;;;5.95;2.17;;;;;;;25.14;78.37;101004.69;8328564;28;20095;-57
2022/07/13 07:52:59;;;;;;;3.53;1.80;;;;;;;25.01;77.21;101010.31;8328568;28;20030;-57
2022/07/13 07:56:59;;;;;;;6.00;2.30;;;;;;;25.19;79.16;101004.88;8326338;28;20037;-56
2022/07/13 08:01:00;;;;;;;9.32;2.25;;;;;;;25.11;80.98;101009.81;8326342;28;20355;-57
2022/07/13 08:05:00;;;;;;;5.95;2.00;;;;;;;24.95;87.05;101017.56;8327084;28;20045;-57
2022/07/13 08:09:01;;;;;;;6.43;2.17;;;;;;;24.77;89.59;101013.84;8328065;28;20069;-57
2022/07/13 08:13:03;;;;;;;9.13;2.60;;;;;;;24.72;90.32;101006.22;8327713;28;20272;-57
2022/07/13 08:17:04;;;;;;;3.60;1.98;;;;;;;24.83;87.55;101004.66;8323203;28;20041;-57
2022/07/13 08:21:04;;;;;;;7.63;2.35;;;;;;;25.24;88.29;101004.16;8325291;28;20555;-57
2022/07/13 08:25:05;;;;;;;7.72;2.42;;;;;;;25.87;80.09;101000.25;8324617;28;20402;-57
2022/07/13 08:29:06;;;;;;;10.48;2.40;;;;;;;26.84;69.90;101004.69;8326768;28;20104;-57
2022/07/13 08:33:06;;;;;;;8.35;2.20;;;;;;;27.56;68.18;100997.19;8325987;28;20040;-56
2022/07/13 08:38:38;;;;;;;5.90;2.63;;;;;;;27.55;61.93;100981.63;8324778;28;20469;-56
2022/07/13 08:41:28;;;;;;;10.32;1.85;;;;;;;27.53;60.10;100979.06;8326645;28;20038;-56
2022/07/13 08:45:29;;;;;;;4.57;2.00;;;;;;;27.65;60.01;100982.72;8325135;28;20037;-56
2022/07/13 08:49:29;;;;;;;11.23;2.00;;;;;;;27.93;60.18;100980.09;8322476;28;20516;-57
2022/07/13 08:53:30;;;;;;;5.32;1.80;;;;;;;28.30;61.42;100978.69;8323227;28;20061;-56
2022/07/13 08:57:32;;;;;;;5.65;1.38;;;;;;;29.35;51.61;100982.81;8321682;28;20041;-56
2022/07/13 09:01:32;;;;;;;6.22;1.15;;;;;;;29.71;48.66;100982.34;8322284;28;20103;-56
2022/07/13 09:05:33;;;;;;;8.15;1.38;;;;;;;30.01;47.94;100982.78;8321317;28;20454;-56
2022/07/13 09:09:36;;;;;;;3.47;1.65;;;;;;;30.08;47.17;100983.47;8323863;28;20041;-56
2022/07/13 09:13:39;;;;;;;4.07;1.70;;;;;;;29.87;47.07;100983.41;8316868;28;20679;-55
2022/07/13 09:17:44;;;;;;;3.30;1.38;;;;;;;29.58;46.85;100982.63;8312728;28;20493;-56
2022/07/13 09:21:45;;;;;;;4.95;1.38;;;;;;;29.57;47.07;100986.53;8314877;28;20033;-55
2022/07/13 09:25:45;;;;;;;3.90;1.40;;;;;;;29.69;47.40;100990.09;8315900;28;20068;-56
2022/07/13 09:29:45;;;;;;;3.00;1.40;;;;;;;29.59;48.19;100989.91;8317152;28;20298;-55
2022/07/13 09:33:46;;;;;;;2.33;1.38;;;;;;;29.60;47.87;100985.16;8318204;28;20334;-55
2022/07/13 09:37:48;;;;;;;8.70;1.50;;;;;;;29.85;48.66;100992.03;8317015;28;20091;-55
2022/07/13 09:41:48;;;;;;;5.82;1.65;;;;;;;29.97;47.67;100998.34;8317342;28;20041;-54
2022/07/13 09:46:20;;;;;;;11.53;1.70;;;;;;;29.80;48.24;100996.69;8315657;28;20038;-55
2022/07/13 09:50:09;;;;;;;4.65;1.63;;;;;;;30.00;48.10;100986.69;8285688;28;20327;-55
2022/07/13 09:54:11;;;;;;;7.68;1.70;;;;;;;30.42;49.03;101001.84;8286142;28;20034;-55
2022/07/13 09:58:15;;;;;;;7.03;1.80;;;;;;;30.77;47.73;100997.84;8313903;28;20040;-55
2022/07/13 10:02:16;;;;;;;2.88;1.58;;;;;;;31.70;46.62;100992.66;8317047;28;20037;-56
2022/07/13 10:06:20;;;;;;;2.20;1.80;;;;;;;31.59;45.69;100996.50;8309653;28;20067;-56
2022/07/13 10:10:21;;;;;;;7.43;1.98;;;;;;;31.61;46.02;101005.44;8317268;28;20049;-56
2022/07/13 10:14:23;;;;;;;9.75;1.67;;;;;;;32.72;45.69;101002.25;8316276;28;20068;-56
2022/07/13 10:18:29;;;;;;;5.43;1.80;;;;;;;33.34;43.52;100988.16;8316809;28;20041;-56
2022/07/13 10:22:41;;;;;;;4.25;1.70;;;;;;;33.09;44.29;101003.00;8317473;28;20042;-56
2022/07/13 10:26:42;;;;;;;7.25;1.90;;;;;;;31.45;45.02;101006.41;8315717;28;20033;-56
2022/07/13 10:30:43;;;;;;;3.63;2.08;;;;;;;31.12;46.73;101006.59;8317071;28;20073;-56
2022/07/13 10:34:53;;;;;;;3.72;1.60;;;;;;;31.51;45.44;100999.75;8321544;28;20044;-56
2022/07/13 10:39:14;;;;;;;7.05;2.03;;;;;;;31.66;46.42;101003.53;8316358;28;20029;-55
2022/07/13 10:43:16;;;;;;;11.52;2.67;;;;;;;33.06;45.62;100991.50;8315912;28;20060;-57
2022/07/13 10:47:20;;;;;;;10.63;2.33;;;;;;;35.26;43.52;100990.25;8318346;28;20041;-57
2022/07/13 10:51:22;;;;;;;6.78;1.70;;;;;;;36.02;40.78;100982.03;8322883;28;20500;-56
2022/07/13 10:55:22;;;;;;;5.88;2.22;;;;;;;35.36;43.06;100998.63;8317742;28;20303;-56
2022/07/13 10:59:47;;;;;;;7.63;1.67;;;;;;;36.55;40.14;100994.97;8323898;28;20106;-57
2022/07/13 11:03:48;;;;;;;8.05;1.63;;;;;;;35.13;42.09;100986.09;8317054;28;20048;-55
2022/07/13 11:07:50;;;;;;;2.95;1.40;;;;;;;36.40;39.57;100989.56;8314988;28;20124;-57
2022/07/13 11:11:53;;;;;;;4.80;1.60;;;;;;;34.39;40.21;100978.88;8319190;28;20068;-57
2022/07/13 11:15:55;;;;;;;2.85;1.88;;;;;;;32.52;44.68;100979.78;8311965;28;20064;-57
2022/07/13 11:19:59;;;;;;;3.72;1.60;;;;;;;32.06;43.72;100980.63;8315426;28;20804;-56
2022/07/13 11:25:19;;;;;;;;;;;;;;;32.40;44.11;100981.13;8319044;28;20053;-56
2022/07/13 11:28:40;;;;;;;;;;;;;;;32.37;46.33;100982.53;8299553;28;19913;-54
2022/07/13 11:32:42;;;;;;;3.13;1.50;;;;;;;33.17;43.67;100974.41;8313568;28;20145;-56
2022/07/13 11:36:42;;;;;;;8.10;1.65;;;;;;;32.71;43.66;100971.72;8319433;28;20368;-57
2022/07/13 11:40:44;;;;;;;3.95;1.35;;;;;;;32.57;45.67;100962.16;8321170;28;20052;-56
2022/07/13 11:44:49;;;;;;;6.63;1.60;;;;;;;33.62;43.72;100960.44;8321426;28;20045;-56
2022/07/13 11:48:59;;;;;;;6.30;1.63;;;;;;;34.75;42.65;100960.72;8318887;28;20498;-56
2022/07/13 11:52:59;;;;;;;8.32;1.30;;;;;;;37.22;40.37;100947.56;8320401;28;20478;-57
2022/07/13 11:57:00;;;;;;;2.47;0.90;;;;;;;35.36;43.51;100940.41;8320491;28;20411;-56
2022/07/13 12:01:08;;;;;;;7.30;1.20;;;;;;;35.87;41.64;100943.63;8317976;28;20748;-56
2022/07/13 12:05:08;;;;;;;10.43;1.75;;;;;;;34.96;42.03;100945.44;8318756;28;20612;-56
2022/07/13 12:09:17;;;;;;;7.93;1.02;;;;;;;35.41;41.82;100936.72;8319535;28;20037;-56
2022/07/13 12:13:18;;;;;;;3.45;1.30;;;;;;;33.87;42.49;100929.56;8319199;28;20445;-57
2022/07/13 12:17:19;;;;;;;3.17;1.17;;;;;;;33.63;43.65;100920.03;8319850;28;20037;-56
2022/07/13 12:21:21;;;;;;;9.40;1.60;;;;;;;34.01;42.33;100920.53;8318044;28;20489;-56
2022/07/13 12:25:26;;;;;;;7.35;1.60;;;;;;;34.13;41.79;100930.34;8317070;28;20037;-56
2022/07/13 12:29:30;;;;;;;7.65;1.13;;;;;;;33.84;43.87;100915.22;8320411;28;20123;-56
2022/07/13 12:33:42;;;;;;;5.38;1.60;;;;;;;33.16;44.19;100913.00;8320198;28;20477;-55
2022/07/13 12:37:43;;;;;;;13.10;1.50;;;;;;;33.35;44.03;100917.78;8304254;28;20045;-57
2022/07/13 12:41:53;;;;;;;4.77;1.60;;;;;;;33.06;44.01;100918.63;8296586;28;20083;-56
2022/07/13 12:45:56;;;;;;;7.10;1.42;;;;;;;33.36;43.07;100908.25;8293728;28;20101;-56
2022/07/13 12:49:56;;;;;;;7.07;1.33;;;;;;;33.69;43.77;100906.84;8299021;28;20061;-57
2022/07/13 12:53:56;;;;;;;2.08;1.27;;;;;;;33.90;43.13;100900.94;8305754;28;20533;-57
2022/07/13 12:57:57;;;;;;;2.40;1.23;;;;;;;33.46;43.11;100891.47;8306946;28;20040;-57
2022/07/13 13:01:58;;;;;;;5.18;1.40;;;;;;;33.05;43.41;100897.31;8292868;28;20510;-56
2022/07/13 13:05:58;;;;;;;6.90;0.90;;;;;;;33.09;44.89;100885.28;8300124;28;20489;-56
2022/07/13 13:09:59;;;;;;;3.95;1.05;;;;;;;32.95;45.12;100884.13;8297422;28;20598;-56
2022/07/13 13:13:59;;;;;;;5.50;0.80;;;;;;;32.83;44.67;100886.31;8298451;28;20033;-57
2022/07/13 13:18:00;;;;;;;12.45;1.50;;;;;;;32.66;44.80;100884.91;8301624;28;20478;-57
2022/07/13 13:22:00;;;;;;;5.37;0.97;;;;;;;32.55;45.73;100888.78;8301187;28;20525;-56
2022/07/13 13:26:00;;;;;;;8.55;0.88;;;;;;;32.66;45.23;100874.53;8299169;28;20284;-57
2022/07/13 13:31:02;;;;;;;6.95;1.13;;;;;;;32.80;45.54;100878.47;8298186;28;20041;-55
2022/07/13 13:34:22;;;;;;;4.45;0.73;;;;;;;32.87;44.63;100881.03;8295271;28;20045;-57
2022/07/13 13:38:22;;;;;;;4.05;0.85;;;;;;;32.95;45.85;100870.13;8299923;28;20033;-54
2022/07/13 13:42:22;;;;;;;4.47;0.90;;;;;;;32.49;45.38;100865.53;8299876;28;20432;-55
2022/07/13 13:46:23;;;;;;;3.78;0.85;;;;;;;32.43;46.26;100865.78;8297116;28;20053;-56
2022/07/13 13:50:24;;;;;;;8.37;1.03;;;;;;;32.29;46.71;100868.22;8300408;28;20034;-57
2022/07/13 13:54:25;;;;;;;3.92;1.20;;;;;;;32.37;46.21;100864.06;8301426;28;20152;-57
2022/07/13 13:58:26;;;;;;;7.65;1.30;;;;;;;32.34;47.54;100865.47;8296471;28;20048;-56
2022/07/13 14:02:26;;;;;;;5.82;1.00;;;;;;;32.41;47.25;100862.44;8301050;28;20448;-55
2022/07/13 14:06:28;;;;;;;5.17;1.07;;;;;;;32.22;46.36;100857.28;8298090;28;20354;-56
2022/07/13 14:10:29;;;;;;;9.90;1.25;;;;;;;32.15;47.00;100850.28;8301409;28;20543;-56
2022/07/13 14:14:29;;;;;;;3.65;1.13;;;;;;;32.13;47.23;100846.88;8299656;28;20543;-56
2022/07/13 14:18:52;;;;;;;11.27;1.35;;;;;;;32.28;48.22;100854.50;8296565;28;20166;-57
2022/07/13 14:22:52;;;;;;;4.07;1.30;;;;;;;32.09;48.54;100849.41;8299233;28;20042;-57
2022/07/13 14:26:54;;;;;;;5.90;0.80;;;;;;;32.02;47.56;100846.00;8303994;28;20272;-55
2022/07/13 14:30:54;;;;;;;12.88;1.30;;;;;;;31.78;48.21;100855.09;8306915;28;20483;-55
2022/07/13 14:34:54;;;;;;;9.45;1.42;;;;;;;31.61;49.10;100846.03;8305164;28;20501;-56
2022/07/13 14:38:55;;;;;;;7.78;1.25;;;;;;;31.47;48.74;100847.66;8302814;28;20049;-56
2022/07/13 14:42:55;;;;;;;8.75;1.10;;;;;;;31.69;47.36;100851.97;8307645;28;20037;-56
2022/07/13 14:46:56;;;;;;;10.90;1.42;;;;;;;31.85;47.99;100844.53;8302769;28;20490;-56
2022/07/13 14:50:56;;;;;;;6.72;1.15;;;;;;;32.04;47.23;100854.97;8305998;28;20060;-56
2022/07/13 14:54:58;;;;;;;8.70;1.30;;;;;;;31.66;48.24;100862.84;8306152;28;20033;-56
2022/07/13 14:58:59;;;;;;;4.25;1.10;;;;;;;31.61;48.37;100860.88;8304719;28;20429;-56
2022/07/13 15:02:59;;;;;;;1.58;0.77;;;;;;;31.43;47.94;100847.31;8304421;28;20447;-56
2022/07/13 15:07:00;;;;;;;5.10;1.53;;;;;;;31.46;49.09;100852.38;8306503;28;20057;-56
2022/07/13 15:11:00;;;;;;;4.22;1.30;;;;;;;31.44;49.41;100848.19;8303202;28;20696;-56
2022/07/13 15:15:01;;;;;;;7.70;1.70;;;;;;;31.53;49.94;100849.34;8298000;28;20186;-56
2022/07/13 15:19:02;;;;;;;4.13;1.70;;;;;;;31.32;50.76;100855.91;8299014;28;20642;-56
2022/07/13 15:23:02;;;;;;;5.05;1.80;;;;;;;31.15;51.00;100863.56;8305762;28;20217;-55
2022/07/13 15:27:03;;;;;;;2.60;1.60;;;;;;;31.04;51.00;100857.03;8300574;28;20065;-57
2022/07/13 15:31:03;;;;;;;6.40;1.55;;;;;;;30.96;50.24;100859.50;8305013;28;20111;-56
2022/07/13 15:35:05;;;;;;;5.78;1.80;;;;;;;30.79;51.23;100858.78;8303643;28;20038;-56
2022/07/13 15:39:06;;;;;;;15.20;2.22;;;;;;;30.62;51.46;100858.00;8296506;28;20254;-56
2022/07/13 15:43:06;;;;;;;5.25;1.98;;;;;;;30.33;51.93;100865.78;8270041;28;20034;-56
2022/07/13 15:47:07;;;;;;;5.63;1.83;;;;;;;30.13;52.33;100873.91;8271781;28;20410;-56
2022/07/13 15:51:07;;;;;;;8.63;1.77;;;;;;;30.03;52.50;100869.03;8266712;28;20285;-56
2022/07/13 15:55:08;;;;;;;8.30;1.48;;;;;;;30.12;51.75;100867.47;8264094;28;20355;-56
2022/07/13 15:59:08;;;;;;;8.52;2.17;;;;;;;30.38;52.18;100872.25;8296261;28;20037;-56
2022/07/13 16:03:09;;;;;;;4.78;1.70;;;;;;;30.20;51.57;100861.47;8302906;28;20246;-56
2022/07/13 16:07:09;;;;;;;3.25;1.77;;;;;;;30.11;51.99;100868.56;8304001;28;20473;-56
2022/07/13 16:11:10;;;;;;;3.40;1.58;;;;;;;30.13;51.97;100863.56;8300602;28;20037;-55
2022/07/13 16:15:10;;;;;;;5.20;1.77;;;;;;;30.33;51.55;100868.56;8299306;28;20549;-55
2022/07/13 16:19:12;;;;;;;3.30;1.30;;;;;;;30.35;52.06;100866.38;8298484;28;20042;-55
2022/07/13 16:23:12;;;;;;;4.82;1.40;;;;;;;30.20;51.69;100864.25;8271486;28;20038;-56
2022/07/13 16:27:13;;;;;;;10.77;2.03;;;;;;;30.00;51.95;100852.81;8270349;28;20046;-56
2022/07/13 16:31:14;;;;;;;9.15;1.70;;;;;;;29.86;52.88;100868.25;8269639;28;20552;-55
2022/07/13 16:35:14;;;;;;;5.17;1.40;;;;;;;29.72;53.10;100866.94;8266405;28;20414;-56
2022/07/13 16:39:15;;;;;;;10.95;2.03;;;;;;;29.83;52.16;100874.34;8266032;28;20905;-55
2022/07/13 16:43:15;;;;;;;4.53;1.97;;;;;;;29.56;51.56;100873.34;8268602;28;20041;-56
2022/07/13 16:47:15;;;;;;;2.58;1.70;;;;;;;29.23;53.28;100867.81;8283710;28;20667;-56
2022/07/13 16:51:17;;;;;;;6.07;1.88;;;;;;;29.07;53.05;100873.38;8302223;28;20509;-56
2022/07/13 16:55:19;;;;;;;2.40;1.52;;;;;;;29.00;53.35;100867.94;8301976;28;20034;-55
2022/07/13 16:59:20;;;;;;;2.35;1.20;;;;;;;28.94;53.32;100871.72;8301997;28;20160;-56
2022/07/13 17:03:21;;;;;;;1.55;1.35;;;;;;;28.74;54.07;100868.59;8299654;28;20496;-56
2022/07/13 17:07:21;;;;;;;3.73;1.67;;;;;;;28.59;54.51;100874.72;8281592;28;20073;-55
2022/07/13 17:11:22;;;;;;;3.53;1.30;;;;;;;28.57;54.56;100876.06;8275430;28;20700;-56
2022/07/13 17:15:22;;;;;;;3.53;1.40;;;;;;;28.41;54.72;100887.94;8300118;28;20037;-54
2022/07/13 17:19:23;;;;;;;4.15;1.55;;;;;;;28.29;55.04;100888.00;8298346;28;20049;-55
2022/07/13 17:23:23;;;;;;;3.17;1.65;;;;;;;28.30;54.76;100883.28;8289532;28;20433;-55
2022/07/13 17:27:24;;;;;;;5.68;1.50;;;;;;;28.17;55.26;100883.56;8299647;28;20048;-55
2022/07/13 17:31:25;;;;;;;4.55;2.17;;;;;;;28.05;55.45;100889.16;8295894;28;20499;-56
2022/07/13 17:35:25;;;;;;;2.15;1.65;;;;;;;28.19;56.25;100886.94;8296940;28;20037;-56
2022/07/13 17:39:25;;;;;;;4.63;1.95;;;;;;;28.15;56.40;100902.44;8288221;28;20129;-56
2022/07/13 17:43:26;;;;;;;4.13;2.05;;;;;;;28.16;56.49;100904.13;8296191;28;20044;-56
2022/07/13 17:47:26;;;;;;;3.50;1.98;;;;;;;27.92;56.88;100902.47;8297630;28;20436;-55
2022/07/13 17:51:27;;;;;;;5.82;2.17;;;;;;;27.75;57.73;100912.63;8300598;28;20097;-56
2022/07/13 17:55:29;;;;;;;7.40;2.38;;;;;;;27.49;57.58;100907.56;8299262;28;20553;-55
2022/07/13 17:59:29;;;;;;;6.28;2.03;;;;;;;27.35;58.38;100911.69;8298318;28;20049;-56
2022/07/13 18:03:30;;;;;;;3.22;1.88;;;;;;;27.28;58.25;100910.91;8301856;28;20132;-56
2022/07/13 18:07:30;;;;;;;3.80;2.55;;;;;;;27.15;57.58;100911.97;8293676;28;20785;-56
2022/07/13 18:11:31;;;;;;;5.35;3.10;;;;;;;27.09;57.98;100914.84;8295277;28;20037;-55
2022/07/13 18:15:32;;;;;;;3.03;1.65;;;;;;;26.94;58.24;100920.84;8299385;28;20045;-56
2022/07/13 18:19:33;;;;;;;6.57;2.30;;;;;;;26.78;59.17;100921.53;8295438;28;20049;-56
2022/07/13 18:23:48;;;;;;;4.77;2.00;;;;;;;26.75;58.58;100919.25;8295998;28;20040;-55
2022/07/13 18:27:48;;;;;;;4.40;2.00;;;;;;;26.66;58.84;100913.16;8297438;28;20296;-56
2022/07/13 18:31:49;;;;;;;4.18;1.80;;;;;;;26.54;59.10;100912.25;8292755;28;20302;-55
2022/07/13 18:35:49;;;;;;;6.07;2.65;;;;;;;26.47;59.10;100919.81;8296878;28;20056;-56
2022/07/13 18:39:50;;;;;;;5.30;1.92;;;;;;;26.32;59.29;100919.38;8292568;28;20506;-56
2022/07/13 18:43:50;;;;;;;2.83;1.87;;;;;;;26.25;59.65;100910.28;8294876;28;20041;-56
2022/07/13 18:47:51;;;;;;;1.92;1.35;;;;;;;26.16;58.90;100911.69;8296220;28;20299;-56
2022/07/13 18:51:51;;;;;;;3.08;1.17;;;;;;;26.11;59.13;100902.38;8283317;28;20053;-57
2022/07/13 18:55:53;;;;;;;2.83;1.35;;;;;;;25.87;60.53;100929.06;8288421;28;20464;-56
2022/07/13 18:59:54;;;;;;;4.65;1.45;;;;;;;25.79;60.03;100914.66;8299908;28;20057;-57
2022/07/13 19:03:54;;;;;;;5.03;1.20;;;;;;;25.71;60.01;100918.56;8298337;28;20128;-56
2022/07/13 19:07:55;;;;;;;3.47;1.42;;;;;;;25.27;63.21;100917.91;8297200;28;20216;-56
2022/07/13 19:11:56;;;;;;;2.15;1.15;;;;;;;25.47;59.60;100921.38;8307701;28;20094;-56
2022/07/13 19:15:57;;;;;;;1.60;1.13;;;;;;;25.52;59.54;100916.84;8305240;28;20494;-56
2022/07/13 19:19:57;;;;;;;1.15;1.00;;;;;;;25.39;59.24;100919.75;8305815;28;20049;-56
2022/07/13 19:24:01;;;;;;;6.07;1.20;;;;;;;25.17;61.07;100923.97;8298892;28;20042;-55
2022/07/13 19:28:02;;;;;;;6.93;1.58;;;;;;;24.84;63.13;100923.38;8297899;28;20673;-56
2022/07/13 19:32:03;;;;;;;8.02;1.48;;;;;;;24.79;62.41;100923.16;8302570;28;20048;-56
2022/07/13 19:36:03;;;;;;;2.00;1.20;;;;;;;24.82;61.99;100922.72;8306216;28;20565;-56
2022/07/13 19:40:07;;;;;;;1.77;1.20;;;;;;;24.80;62.20;100924.88;8305773;28;20255;-53
2022/07/13 19:44:07;;;;;;;2.47;1.13;;;;;;;24.84;61.81;100926.13;8303961;28;20034;-56
2022/07/13 19:48:08;;;;;;;5.85;1.40;;;;;;;24.99;62.52;100935.81;8300564;28;20045;-57
2022/07/13 19:52:09;;;;;;;1.40;1.23;;;;;;;24.95;61.85;100944.78;8304766;28;20096;-57
2022/07/13 19:56:09;;;;;;;4.70;1.25;;;;;;;24.79;61.99;100942.53;8310612;28;20029;-56
2022/07/13 20:00:11;;;;;;;3.43;1.10;;;;;;;24.72;62.66;100944.50;8305441;28;20042;-57
2022/07/13 20:04:11;;;;;;;4.15;1.30;;;;;;;24.87;61.59;100947.81;8309029;28;20037;-56
2022/07/13 20:08:13;;;;;;;1.92;1.00;;;;;;;24.98;61.13;100955.41;8316485;28;20121;-57
2022/07/13 20:12:15;;;;;;;3.78;1.00;;;;;;;24.81;62.28;100957.00;8315855;28;20056;-56
2022/07/13 20:16:16;;;;;;;3.47;1.40;;;;;;;24.45;64.60;100970.56;8317192;28;20033;-56
2022/07/13 20:20:17;;;;;;;2.03;1.30;;;;;;;24.27;64.66;100973.19;8316895;28;20037;-56
2022/07/13 20:24:17;;;;;;;7.00;1.30;;;;;;;24.28;65.09;100974.91;8316426;28;20037;-56
2022/07/13 20:28:18;;;;;;;5.88;1.13;;;;;;;24.02;66.35;100973.06;8315895;28;20039;-56
2022/07/13 20:32:18;;;;;;;3.60;1.10;;;;;;;23.38;69.68;100965.69;8315004;28;20032;-56
2022/07/13 20:36:19;;;;;;;2.87;1.43;;;;;;;23.13;71.71;100974.59;8314430;28;20037;-57
2022/07/13 20:40:19;;;;;;;3.42;1.27;;;;;;;23.16;70.89;100979.69;8315936;28;20333;-57
2022/07/13 20:44:20;;;;;;;3.00;1.40;;;;;;;23.40;70.30;100981.00;8314453;28;20119;-57
2022/07/13 20:48:20;;;;;;;5.25;1.45;;;;;;;23.32;70.94;100974.84;8316175;28;20537;-56
2022/07/13 20:52:21;;;;;;;1.80;1.13;;;;;;;23.45;69.47;100972.06;8317150;28;20489;-56
2022/07/13 20:56:21;;;;;;;4.65;1.52;;;;;;;23.14;70.09;100970.75;8317127;28;20442;-57
2022/07/13 21:00:21;;;;;;;7.53;1.70;;;;;;;23.31;69.84;100970.38;8319186;28;20433;-57
2022/07/13 21:04:22;;;;;;;4.22;1.30;;;;;;;22.93;71.79;100979.22;8317871;28;20075;-57
2022/07/13 21:08:22;;;;;;;5.60;1.42;;;;;;;22.93;71.36;100981.97;8316279;28;20048;-55
2022/07/13 21:12:23;;;;;;;3.35;1.65;;;;;;;22.90;72.13;100985.13;8315514;28;20111;-57
2022/07/13 21:16:23;;;;;;;3.85;1.45;;;;;;;22.74;72.23;100981.91;8316640;28;20352;-57
2022/07/13 21:20:24;;;;;;;6.03;2.00;;;;;;;22.52;73.37;100985.88;8316725;28;20585;-56
2022/07/13 21:24:24;;;;;;;5.32;1.90;;;;;;;22.27;74.69;100982.78;8316715;28;20299;-57
2022/07/13 21:28:28;;;;;;;2.90;1.50;;;;;;;22.16;74.96;100975.09;8316727;28;20120;-57
2022/07/13 21:32:28;;;;;;;6.95;2.00;;;;;;;22.13;74.39;100983.78;8313639;28;20469;-57
2022/07/13 21:36:29;;;;;;;4.77;2.00;;;;;;;22.15;74.45;100976.16;8315707;28;20060;-58
2022/07/13 21:40:29;;;;;;;3.33;1.70;;;;;;;22.15;74.75;100989.06;8312055;28;20280;-57
2022/07/13 21:44:30;;;;;;;7.03;2.10;;;;;;;22.64;72.04;100985.09;8315254;28;20057;-58
2022/07/13 21:48:30;;;;;;;5.82;2.17;;;;;;;22.82;72.34;100968.81;8306774;28;20049;-58
2022/07/13 21:52:30;;;;;;;5.60;1.65;;;;;;;23.17;70.70;100975.84;8323071;28;20049;-58
2022/07/13 21:56:31;;;;;;;5.43;2.40;;;;;;;23.19;70.85;100979.25;8315593;28;20045;-58
2022/07/13 22:00:31;;;;;;;2.93;2.30;;;;;;;23.17;71.30;100986.88;8311043;28;20292;-58
2022/07/13 22:04:35;;;;;;;7.53;1.90;;;;;;;23.09;71.86;100989.84;8314376;28;20633;-58
2022/07/13 22:13:28;;;;;;;5.85;2.25;;;;;;;23.13;72.08;100980.09;8383719;27;20401;-57
2022/07/13 22:18:08;;;;;;;5.20;2.08;;;;;;;23.05;72.50;100971.16;8373847;28;20422;-57
2022/07/13 22:22:48;;;;;;;3.78;2.20;;;;;;;22.98;72.70;100975.81;8369703;28;20130;-56
2022/07/13 22:27:29;;;;;;;3.85;2.10;;;;;;;22.88;73.09;100970.69;8343724;28;20041;-57
2022/07/13 22:32:09;;;;;;;3.67;2.28;;;;;;;22.78;73.63;100966.69;8348652;28;20051;-56
2022/07/13 22:36:49;;;;;;;6.60;2.40;;;;;;;22.68;74.51;100975.34;8357319;28;20449;-57
2022/07/13 22:41:30;;;;;;;6.13;2.95;;;;;;;22.63;75.12;100975.09;8350371;28;20502;-57
2022/07/13 22:46:10;;;;;;;6.35;2.30;;;;;;;22.53;75.95;100977.41;8347095;28;20044;-57
2022/07/13 22:50:50;;;;;;;5.75;2.50;;;;;;;22.36;77.10;100976.06;8341624;28;20095;-55
2022/07/13 22:55:30;;;;;;;5.03;2.70;;;;;;;22.40;77.34;100977.34;8359440;28;20041;-56
2022/07/13 23:00:10;;;;;;;3.55;2.47;;;;;;;22.34;77.90;100975.41;8367422;28;20447;-57
2022/07/13 23:04:50;;;;;;;5.47;2.63;;;;;;;22.23;78.54;100969.63;8344518;28;20056;-54
2022/07/13 23:09:30;;;;;;;4.60;2.65;;;;;;;22.17;79.27;100957.50;8345523;28;20572;-56
2022/07/13 23:14:11;;;;;;;3.15;2.65;;;;;;;22.07;80.05;100964.44;8348583;28;20045;-57
2022/07/13 23:18:51;;;;;;;8.82;2.83;;;;;;;22.03;79.96;100958.50;8353330;28;20422;-57
2022/07/13 23:23:31;;;;;;;7.18;2.67;;;;;;;21.96;80.58;100963.09;8350980;28;20039;-57
2022/07/13 23:28:11;;;;;;;5.63;2.90;;;;;;;21.90;80.42;100965.84;8352283;28;20475;-57
2022/07/13 23:32:18;;;;;;;10.15;4.18;;;;;;;21.79;80.82;100981.03;8347827;28;20040;-57
2022/07/13 23:36:18;;;;;;;8.32;3.13;;;;;;;21.68;81.15;100973.28;8351256;28;20064;-57
2022/07/13 23:40:19;;;;;;;8.52;3.67;;;;;;;21.60;81.33;100978.97;8351487;28;20041;-57
2022/07/13 23:44:20;;;;;;;4.55;3.03;;;;;;;21.51;81.71;100971.91;8347803;28;20033;-57
2022/07/13 23:48:21;;;;;;;5.60;3.10;;;;;;;21.45;81.63;100963.59;8348363;28;20037;-56
2022/07/13 23:52:21;;;;;;;9.00;3.35;;;;;;;21.35;81.97;100975.78;8347361;28;20051;-57
2022/07/13 23:56:21;;;;;;;10.73;3.40;;;;;;;21.31;82.22;100968.13;8353772;28;20045;-57
